Edinburg, New York
Current Conditions -  °F | °C
As of 1:55 AM on Sunday 26 Oct 2014 (Local Time) from KNY0 Reporting Station
Broken Clouds Broken Clouds  
Wind Chill: 43°   Ceiling: 5000
Heat Index: 46°   Visibility: 10mi
Dew Point: 43°   Wind: 7mph
Humidity: 88%   Direction: 220°SW
Pressure: 29.51"   Gusts: NA
Location:  43.2819°N, 74.3419°W
Report Text: KNY0 260555Z AUTO 22006KT 10SM SCT036 BKN050 BKN060 08/06 A2951 RMK AO2 P0006 60006 T00800062 10122 20080 401550051
Loading
Personal Weather Stations






























Interactive Weather Map New forecast layout! Learn more

10-Day Weather Forecast

Advertisements
Track Severe Weather on mobile